Time;durP1;ratioP1;P1;durP2;ratioP2;P2;SDS_P1;SDS_P2;PMS_P1;PMS_P2;Temp;Humidity;BMP_temperature;BMP_pressure;BME280_temperature;BME280_humidity;BME280_pressure;Samples;Min_cycle;Max_cycle;Signal;HPM_P1;HPM_P2
2023/05/27 00:01:58;;;;;;;7.60;2.80;;;15.40;79.00;;;;;;6169535;23;20088;-83
2023/05/27 00:04:24;;;;;;;8.60;3.20;;;15.40;79.00;;;;;;6197199;23;20009;-84
2023/05/27 00:06:49;;;;;;;9.70;2.80;;;15.40;79.00;;;;;;6170624;23;20065;-83
2023/05/27 00:09:15;;;;;;;7.82;2.83;;;15.40;79.00;;;;;;6205479;23;20001;-83
2023/05/27 00:11:40;;;;;;;8.73;3.30;;;15.30;79.00;;;;;;6178388;23;19997;-83
2023/05/27 00:14:06;;;;;;;8.57;3.20;;;15.40;79.00;;;;;;6204123;23;20498;-83
2023/05/27 00:16:35;;;;;;;10.30;3.58;;;15.30;79.00;;;;;;6203932;23;20205;-83
2023/05/27 00:19:01;;;;;;;8.77;3.33;;;15.30;79.00;;;;;;6203264;23;20001;-83
2023/05/27 00:21:27;;;;;;;6.45;2.70;;;15.40;79.00;;;;;;6203372;23;20005;-83
2023/05/27 00:23:52;;;;;;;8.15;3.28;;;15.40;79.00;;;;;;6176407;23;20019;-82
2023/05/27 00:26:18;;;;;;;7.38;2.85;;;15.40;79.00;;;;;;6175275;23;20111;-80
2023/05/27 00:28:43;;;;;;;7.78;3.20;;;15.40;79.00;;;;;;6174383;23;20060;-83
2023/05/27 00:31:08;;;;;;;6.95;2.65;;;15.40;79.00;;;;;;6199989;23;20001;-83
2023/05/27 00:33:34;;;;;;;7.80;2.83;;;15.40;79.00;;;;;;6200001;23;20009;-83
2023/05/27 00:35:59;;;;;;;7.88;3.28;;;15.50;79.00;;;;;;6171944;23;20032;-82
2023/05/27 00:38:25;;;;;;;7.38;2.67;;;15.50;79.00;;;;;;6171426;23;20466;-83
2023/05/27 00:40:53;;;;;;;7.03;2.75;;;15.50;78.90;;;;;;6198686;23;20001;-83
2023/05/27 00:43:18;;;;;;;7.50;3.13;;;15.50;79.00;;;;;;6171981;23;20132;-84
2023/05/27 00:45:44;;;;;;;6.22;2.90;;;15.50;79.00;;;;;;6170706;23;20005;-83
2023/05/27 00:48:10;;;;;;;6.45;2.67;;;15.50;78.90;;;;;;6197028;23;20001;-82
2023/05/27 00:50:35;;;;;;;7.05;3.10;;;15.50;78.90;;;;;;6160380;23;20459;-82
2023/05/27 00:53:02;;;;;;;6.95;3.00;;;15.50;78.80;;;;;;6160056;23;20043;-82
2023/05/27 00:55:27;;;;;;;7.55;2.90;;;15.40;78.80;;;;;;6186847;23;19997;-82
2023/05/27 00:57:54;;;;;;;8.60;2.88;;;15.40;78.90;;;;;;6169255;23;20336;-83
2023/05/27 01:00:20;;;;;;;6.32;2.90;;;15.40;78.90;;;;;;6168591;23;20436;-83
2023/05/27 01:02:46;;;;;;;6.78;3.15;;;15.40;79.00;;;;;;6168442;23;20348;-83
2023/05/27 01:05:15;;;;;;;7.40;3.17;;;15.40;79.00;;;;;;6169248;23;19993;-83
2023/05/27 01:08:16;;;;;;;8.05;3.65;;;15.40;79.00;;;;;;6194673;23;20055;-82
2023/05/27 01:10:49;;;;;;;7.40;3.28;;;15.30;79.00;;;;;;6168027;23;20005;-82
2023/05/27 01:13:30;;;;;;;9.82;3.53;;;15.30;79.00;;;;;;6164552;23;20008;-83
2023/05/27 01:16:01;;;;;;;7.53;2.72;;;15.40;79.10;;;;;;6159645;23;20012;-82
2023/05/27 01:18:31;;;;;;;9.07;3.63;;;15.30;79.00;;;;;;6165709;23;20032;-82
2023/05/27 01:21:05;;;;;;;5.75;2.50;;;15.30;79.00;;;;;;6166523;23;20005;-83
2023/05/27 01:23:31;;;;;;;6.22;3.15;;;15.30;79.00;;;;;;6193042;23;20001;-83
2023/05/27 01:25:56;;;;;;;6.93;2.88;;;15.30;79.10;;;;;;6164557;23;20012;-83
2023/05/27 01:28:22;;;;;;;7.28;2.88;;;15.30;79.00;;;;;;6164464;23;20005;-82
2023/05/27 01:30:50;;;;;;;8.32;3.10;;;15.30;79.00;;;;;;6164447;23;20428;-82
2023/05/27 01:33:23;;;;;;;8.45;3.00;;;15.30;79.10;;;;;;6164196;23;20060;-81
2023/05/27 01:35:56;;;;;;;6.65;2.95;;;15.30;79.00;;;;;;6192038;23;20032;-83
2023/05/27 01:38:24;;;;;;;6.28;2.70;;;15.30;79.00;;;;;;6186781;23;20012;-82
2023/05/27 01:40:51;;;;;;;7.57;2.85;;;15.30;79.00;;;;;;6186821;23;20009;-82
2023/05/27 01:43:18;;;;;;;6.70;2.85;;;15.30;79.60;;;;;;6189869;23;20043;-82
2023/05/27 01:45:43;;;;;;;8.55;3.60;;;15.30;79.10;;;;;;6190811;23;20017;-82
2023/05/27 01:48:09;;;;;;;7.60;3.30;;;15.30;79.00;;;;;;6187719;23;20063;-82
2023/05/27 01:50:35;;;;;;;7.03;2.88;;;15.30;79.00;;;;;;6159148;23;20390;-82
2023/05/27 01:53:03;;;;;;;5.90;2.55;;;15.30;79.00;;;;;;6158363;23;20487;-82
2023/05/27 01:55:30;;;;;;;7.05;2.92;;;15.30;79.00;;;;;;6158354;23;20001;-82
2023/05/27 01:57:55;;;;;;;7.93;3.38;;;15.30;79.10;;;;;;6158325;23;20008;-82
2023/05/27 02:00:21;;;;;;;6.95;2.80;;;15.30;79.10;;;;;;6161897;23;20002;-81
2023/05/27 02:02:46;;;;;;;5.90;2.60;;;15.30;79.00;;;;;;6188966;23;20096;-82
2023/05/27 02:05:12;;;;;;;7.15;3.15;;;15.30;79.00;;;;;;6186124;23;20034;-82
2023/05/27 02:07:38;;;;;;;8.57;3.22;;;15.30;79.00;;;;;;6184144;23;20029;-82
2023/05/27 02:10:04;;;;;;;6.30;3.17;;;15.30;79.00;;;;;;6158089;23;20052;-82
2023/05/27 02:12:29;;;;;;;7.50;2.88;;;15.30;79.00;;;;;;6184459;23;20509;-82
2023/05/27 02:14:55;;;;;;;7.72;3.17;;;15.40;79.00;;;;;;6184696;23;20032;-82
2023/05/27 02:17:20;;;;;;;6.30;2.75;;;15.30;78.90;;;;;;6184102;23;20036;-82
2023/05/27 02:19:46;;;;;;;8.23;3.30;;;15.40;78.90;;;;;;6159928;23;20009;-82
2023/05/27 02:22:13;;;;;;;6.75;2.40;;;15.40;78.90;;;;;;6160626;23;20012;-82
2023/05/27 02:24:38;;;;;;;6.40;3.00;;;15.40;78.90;;;;;;6159568;23;20001;-82
2023/05/27 02:27:05;;;;;;;7.15;3.13;;;15.40;78.80;;;;;;6184669;23;20005;-82
2023/05/27 02:29:30;;;;;;;6.63;2.90;;;15.40;78.80;;;;;;6158376;23;19997;-82
2023/05/27 02:31:56;;;;;;;7.32;3.05;;;15.40;78.80;;;;;;6158275;23;20060;-82
2023/05/27 02:34:21;;;;;;;6.40;2.88;;;15.40;78.70;;;;;;6184836;23;20471;-82
2023/05/27 02:36:47;;;;;;;6.90;3.00;;;15.40;78.80;;;;;;6157863;23;20096;-82
2023/05/27 02:39:12;;;;;;;6.15;2.80;;;15.40;78.80;;;;;;6158377;23;20028;-82
2023/05/27 02:41:38;;;;;;;6.20;2.72;;;15.40;78.80;;;;;;6158996;23;20028;-82
2023/05/27 02:44:05;;;;;;;6.60;2.97;;;15.30;78.90;;;;;;6158942;23;20041;-82
2023/05/27 02:46:30;;;;;;;6.13;2.60;;;15.30;78.90;;;;;;6158627;23;20005;-83
2023/05/27 02:48:56;;;;;;;6.53;3.00;;;15.30;79.00;;;;;;6157745;23;20001;-82
2023/05/27 02:51:22;;;;;;;7.10;2.90;;;15.30;79.00;;;;;;6181714;23;20001;-82
2023/05/27 02:53:48;;;;;;;6.47;2.47;;;15.30;79.10;;;;;;6184579;23;20072;-82
2023/05/27 02:56:13;;;;;;;6.88;2.88;;;15.20;79.00;;;;;;6157674;23;20416;-81
2023/05/27 02:58:39;;;;;;;7.55;2.90;;;15.30;79.10;;;;;;6183983;23;20340;-82
2023/05/27 03:01:04;;;;;;;7.40;2.80;;;15.30;79.10;;;;;;6157786;23;20008;-82
2023/05/27 03:03:30;;;;;;;5.75;2.60;;;15.30;79.20;;;;;;6175804;23;20005;-83
2023/05/27 03:05:56;;;;;;;6.35;2.97;;;15.20;79.10;;;;;;6176329;23;20086;-83
2023/05/27 03:08:21;;;;;;;5.93;3.15;;;15.20;79.10;;;;;;6201499;23;20008;-83
2023/05/27 03:10:47;;;;;;;6.90;2.88;;;15.20;79.20;;;;;;6174941;23;20027;-83
2023/05/27 03:13:13;;;;;;;6.40;2.90;;;15.20;79.20;;;;;;6200705;23;20028;-83
2023/05/27 03:15:38;;;;;;;7.47;3.00;;;15.20;79.20;;;;;;6175528;23;20040;-83
2023/05/27 03:18:04;;;;;;;5.97;2.88;;;15.30;79.20;;;;;;6201640;23;20005;-83
2023/05/27 03:20:29;;;;;;;7.63;3.33;;;15.40;79.20;;;;;;6201472;23;20032;-83
2023/05/27 03:22:56;;;;;;;6.07;3.03;;;15.20;79.10;;;;;;6174164;23;20008;-83
2023/05/27 03:25:21;;;;;;;6.55;2.72;;;15.30;79.10;;;;;;6200604;23;20447;-83
2023/05/27 03:27:47;;;;;;;6.63;2.95;;;15.20;79.10;;;;;;6200553;23;20024;-83
2023/05/27 03:30:13;;;;;;;5.85;2.90;;;15.20;79.10;;;;;;6199378;23;20343;-83
2023/05/27 03:32:38;;;;;;;6.25;2.58;;;15.20;79.10;;;;;;6199963;23;20360;-83
2023/05/27 03:35:04;;;;;;;6.78;3.00;;;15.20;79.10;;;;;;6172566;23;20001;-83
2023/05/27 03:37:30;;;;;;;7.93;2.83;;;15.20;79.10;;;;;;6172115;23;20009;-83
2023/05/27 03:39:55;;;;;;;5.78;2.70;;;15.20;79.10;;;;;;6161534;23;20436;-83
2023/05/27 03:42:21;;;;;;;5.57;2.75;;;15.20;79.10;;;;;;6161188;23;20442;-83
2023/05/27 03:44:46;;;;;;;6.50;2.85;;;15.20;79.10;;;;;;6161880;23;20343;-83
2023/05/27 03:47:12;;;;;;;6.55;2.90;;;15.20;79.10;;;;;;6196544;23;20643;-82
2023/05/27 03:49:37;;;;;;;8.18;2.90;;;15.20;79.10;;;;;;6190460;23;20005;-82
2023/05/27 03:52:03;;;;;;;6.45;2.85;;;15.20;79.10;;;;;;6160952;23;20332;-82
2023/05/27 03:54:29;;;;;;;7.88;3.10;;;15.20;79.00;;;;;;6159512;23;20001;-82
2023/05/27 03:56:55;;;;;;;10.32;3.22;;;15.20;78.90;;;;;;6160976;23;20024;-83
2023/05/27 03:59:21;;;;;;;6.20;2.75;;;15.30;78.90;;;;;;6172932;23;20025;-83
2023/05/27 04:01:47;;;;;;;6.88;2.83;;;15.30;78.90;;;;;;6203988;23;20005;-83
2023/05/27 04:04:12;;;;;;;7.30;2.70;;;15.30;78.90;;;;;;6203386;23;20009;-83
2023/05/27 04:06:38;;;;;;;6.30;2.70;;;15.30;78.80;;;;;;6175718;23;20095;-83
2023/05/27 04:09:04;;;;;;;6.57;2.88;;;15.30;78.80;;;;;;6175602;23;20017;-83
2023/05/27 04:11:30;;;;;;;5.93;3.00;;;15.30;78.70;;;;;;6164630;23;20024;-82
2023/05/27 04:13:56;;;;;;;6.75;3.10;;;15.30;78.70;;;;;;6166635;23;20332;-84
2023/05/27 04:16:24;;;;;;;7.05;2.90;;;15.40;78.60;;;;;;6163883;23;20087;-83
2023/05/27 04:18:51;;;;;;;7.22;2.95;;;15.40;78.60;;;;;;6166871;23;20009;-83
2023/05/27 04:21:17;;;;;;;6.78;3.10;;;15.40;78.50;;;;;;6166406;23;20358;-81
2023/05/27 04:23:43;;;;;;;6.45;2.97;;;15.30;78.60;;;;;;6193519;23;20080;-83
2023/05/27 04:26:09;;;;;;;5.70;2.65;;;15.30;78.60;;;;;;6165677;23;20009;-86
2023/05/27 04:28:35;;;;;;;7.95;3.30;;;15.30;78.60;;;;;;6165857;23;20029;-82
2023/05/27 04:31:00;;;;;;;6.35;3.03;;;15.30;78.80;;;;;;6165190;23;20069;-83
2023/05/27 04:33:26;;;;;;;5.57;2.65;;;15.30;78.80;;;;;;6191567;23;20288;-83
2023/05/27 04:35:53;;;;;;;5.88;2.53;;;15.30;78.90;;;;;;6164963;23;20274;-82
2023/05/27 04:38:20;;;;;;;5.88;2.90;;;15.30;78.90;;;;;;6162900;23;20064;-82
2023/05/27 04:40:52;;;;;;;5.05;2.75;;;15.20;78.80;;;;;;6160369;23;20371;-83
2023/05/27 04:43:18;;;;;;;5.82;2.83;;;15.20;78.90;;;;;;6189281;23;20062;-81
2023/05/27 04:45:44;;;;;;;5.20;2.60;;;15.20;79.00;;;;;;6157102;23;20426;-81
2023/05/27 04:48:10;;;;;;;9.55;3.53;;;15.20;79.00;;;;;;6156680;23;20001;-82
2023/05/27 04:50:36;;;;;;;8.07;3.42;;;15.20;78.60;;;;;;6158288;23;20390;-82
2023/05/27 04:53:02;;;;;;;9.27;3.00;;;15.20;78.70;;;;;;6190141;23;20005;-83
2023/05/27 04:55:28;;;;;;;9.18;3.30;;;15.20;78.60;;;;;;6162725;23;20092;-82
2023/05/27 04:57:53;;;;;;;9.23;3.10;;;15.20;78.60;;;;;;6187483;23;20352;-82
2023/05/27 05:00:35;;;;;;;6.50;2.92;;;15.20;78.60;;;;;;6152995;23;20009;-81
2023/05/27 05:03:01;;;;;;;9.57;3.10;;;15.20;78.50;;;;;;6162975;23;20001;-81
2023/05/27 05:05:27;;;;;;;6.65;3.00;;;15.20;78.50;;;;;;6157252;23;20120;-81
2023/05/27 05:07:54;;;;;;;7.53;2.72;;;15.20;78.50;;;;;;6154112;23;20029;-82
2023/05/27 05:10:20;;;;;;;8.25;3.47;;;15.20;78.50;;;;;;6153792;23;20005;-84
2023/05/27 05:12:45;;;;;;;8.48;2.80;;;15.20;78.50;;;;;;6180143;23;20068;-84
2023/05/27 05:15:12;;;;;;;7.05;2.72;;;15.20;78.50;;;;;;6164164;23;20012;-82
2023/05/27 05:17:37;;;;;;;7.82;3.00;;;15.20;78.50;;;;;;6162032;23;20005;-81
2023/05/27 05:20:04;;;;;;;6.70;3.10;;;15.20;78.50;;;;;;6159200;23;20020;-79
2023/05/27 05:22:30;;;;;;;8.75;3.10;;;15.20;78.50;;;;;;6164051;23;20009;-78
2023/05/27 05:24:55;;;;;;;6.97;3.05;;;15.30;78.60;;;;;;6184676;23;20079;-80
2023/05/27 05:27:21;;;;;;;7.30;3.10;;;15.20;78.80;;;;;;6190933;23;19993;-79
2023/05/27 05:29:46;;;;;;;8.25;3.25;;;15.30;78.50;;;;;;6192530;23;20001;-81
2023/05/27 05:32:12;;;;;;;7.35;3.00;;;15.30;78.50;;;;;;6168337;23;20444;-80
2023/05/27 05:34:38;;;;;;;6.95;3.22;;;15.30;78.60;;;;;;6168568;23;20005;-79
2023/05/27 05:37:04;;;;;;;8.38;2.80;;;15.30;78.50;;;;;;6167254;23;20377;-80
2023/05/27 05:39:30;;;;;;;9.68;3.20;;;15.30;78.50;;;;;;6169855;23;20065;-79
2023/05/27 05:41:57;;;;;;;6.55;3.00;;;15.30;78.50;;;;;;6169604;23;20245;-79
2023/05/27 05:44:23;;;;;;;8.00;3.17;;;15.30;78.40;;;;;;6167911;23;20012;-79
2023/05/27 05:46:49;;;;;;;7.45;2.80;;;15.30;78.40;;;;;;6167494;23;20466;-80
2023/05/27 05:49:15;;;;;;;8.27;3.10;;;15.40;78.30;;;;;;6167941;23;20025;-80
2023/05/27 05:51:40;;;;;;;8.75;3.22;;;15.40;78.20;;;;;;6168390;23;20088;-79
2023/05/27 05:54:06;;;;;;;8.48;3.20;;;15.40;78.20;;;;;;6167484;23;20320;-78
2023/05/27 05:56:33;;;;;;;8.13;3.22;;;15.40;78.10;;;;;;6165123;23;20447;-79
2023/05/27 05:58:58;;;;;;;6.60;3.13;;;15.50;78.10;;;;;;6190700;23;20016;-79
2023/05/27 06:01:26;;;;;;;6.80;3.00;;;15.40;78.00;;;;;;6189120;23;20060;-79
2023/05/27 06:03:52;;;;;;;7.30;3.40;;;15.40;77.90;;;;;;6162236;23;20033;-80
2023/05/27 06:06:18;;;;;;;8.10;3.40;;;15.40;78.20;;;;;;6163941;23;20005;-80
2023/05/27 06:08:43;;;;;;;7.75;3.30;;;15.50;77.90;;;;;;6161404;23;20028;-78
2023/05/27 06:11:10;;;;;;;6.38;3.05;;;16.00;78.30;;;;;;6164231;23;20028;-80
2023/05/27 06:13:35;;;;;;;6.00;2.78;;;15.50;78.00;;;;;;6161158;23;20432;-80
2023/05/27 06:16:01;;;;;;;9.48;3.40;;;15.40;78.00;;;;;;6164929;23;20016;-80
2023/05/27 06:18:26;;;;;;;5.85;2.70;;;15.40;78.10;;;;;;6189645;23;20065;-79
2023/05/27 06:20:52;;;;;;;8.50;3.25;;;15.40;78.10;;;;;;6161494;23;20096;-80
2023/05/27 06:23:17;;;;;;;7.78;2.95;;;15.40;78.20;;;;;;6189577;23;20498;-80
2023/05/27 06:25:43;;;;;;;7.25;3.03;;;15.40;78.20;;;;;;6166690;23;20005;-79
2023/05/27 06:28:08;;;;;;;5.95;2.88;;;15.40;78.20;;;;;;6165038;23;20021;-80
2023/05/27 06:30:37;;;;;;;7.47;3.33;;;15.80;78.50;;;;;;6189910;23;20016;-82
2023/05/27 06:33:02;;;;;;;7.93;3.15;;;15.40;78.20;;;;;;6160859;23;20013;-79
2023/05/27 06:35:28;;;;;;;8.07;3.22;;;15.50;78.20;;;;;;6162688;23;20039;-79
2023/05/27 06:37:53;;;;;;;8.65;3.13;;;15.50;78.20;;;;;;6165099;23;20005;-80
2023/05/27 06:40:19;;;;;;;6.53;2.90;;;16.20;78.60;;;;;;6164920;23;20005;-80
2023/05/27 06:42:44;;;;;;;7.65;3.40;;;15.40;78.00;;;;;;6159935;23;20012;-80
2023/05/27 06:45:10;;;;;;;7.85;3.40;;;15.40;78.00;;;;;;6159748;23;20005;-79
2023/05/27 06:47:36;;;;;;;5.82;2.83;;;15.50;78.10;;;;;;6159705;23;20009;-79
2023/05/27 06:50:02;;;;;;;6.97;2.90;;;15.50;78.00;;;;;;6164454;23;20001;-79
2023/05/27 06:52:27;;;;;;;6.90;3.03;;;15.50;78.00;;;;;;6190898;23;20512;-80
2023/05/27 06:54:53;;;;;;;8.45;3.10;;;15.50;78.00;;;;;;6164626;23;20089;-82
2023/05/27 06:57:19;;;;;;;6.80;2.80;;;15.50;78.00;;;;;;6188540;23;20009;-78
2023/05/27 06:59:44;;;;;;;6.78;3.15;;;15.50;77.90;;;;;;6191862;23;20009;-81
2023/05/27 07:02:10;;;;;;;7.40;2.90;;;15.50;77.90;;;;;;6165669;23;20043;-79
2023/05/27 07:04:35;;;;;;;6.75;2.95;;;15.50;77.90;;;;;;6165884;23;20024;-80
2023/05/27 07:07:02;;;;;;;6.03;2.90;;;15.60;78.00;;;;;;6165080;23;20036;-81
2023/05/27 07:09:28;;;;;;;6.38;2.80;;;15.60;78.00;;;;;;6164842;23;20005;-79
2023/05/27 07:11:53;;;;;;;7.45;3.20;;;15.60;78.00;;;;;;6164357;23;20001;-80
2023/05/27 07:14:19;;;;;;;6.13;3.10;;;15.60;77.90;;;;;;6165737;23;20064;-81
2023/05/27 07:16:44;;;;;;;7.63;2.95;;;15.60;77.90;;;;;;6164664;23;20009;-81
2023/05/27 07:19:10;;;;;;;7.30;3.08;;;15.60;77.90;;;;;;6165875;23;20009;-82
2023/05/27 07:21:36;;;;;;;7.32;2.83;;;15.60;77.80;;;;;;6165998;23;20009;-80
2023/05/27 07:24:05;;;;;;;6.68;2.90;;;15.60;77.80;;;;;;6166895;23;20059;-81
2023/05/27 07:26:32;;;;;;;6.57;2.80;;;15.70;77.80;;;;;;6167168;23;20032;-80
2023/05/27 07:28:59;;;;;;;6.38;2.78;;;16.00;78.00;;;;;;6170849;23;20012;-80
2023/05/27 07:31:25;;;;;;;7.00;2.90;;;15.70;77.70;;;;;;6169283;23;20002;-80
2023/05/27 07:33:51;;;;;;;6.35;2.38;;;15.70;77.60;;;;;;6141795;23;20013;-82
2023/05/27 07:36:17;;;;;;;6.55;3.10;;;15.80;77.60;;;;;;6139481;23;20020;-82
2023/05/27 07:38:42;;;;;;;7.20;2.72;;;15.80;77.40;;;;;;6140034;23;20012;-81
2023/05/27 07:41:08;;;;;;;5.65;2.55;;;15.80;77.30;;;;;;6139122;23;20025;-81
2023/05/27 07:43:34;;;;;;;6.82;2.80;;;15.90;77.30;;;;;;6139898;23;20005;-83
2023/05/27 07:45:59;;;;;;;6.07;2.90;;;15.90;77.10;;;;;;6139121;23;20013;-80
2023/05/27 07:48:25;;;;;;;6.63;2.80;;;15.90;77.10;;;;;;6138165;23;20037;-80
2023/05/27 07:50:50;;;;;;;6.43;2.65;;;16.00;77.10;;;;;;6135880;23;20273;-79
2023/05/27 07:53:16;;;;;;;6.45;3.05;;;16.00;77.00;;;;;;6136713;23;20032;-81
2023/05/27 07:55:41;;;;;;;5.60;2.70;;;16.00;76.90;;;;;;6136573;23;20587;-82
2023/05/27 07:58:07;;;;;;;6.60;2.90;;;16.00;76.80;;;;;;6135005;23;20388;-79
2023/05/27 08:00:32;;;;;;;7.30;2.90;;;16.00;76.80;;;;;;6131164;23;20085;-81
2023/05/27 08:02:58;;;;;;;6.38;2.80;;;16.00;76.80;;;;;;6129604;23;20028;-81
2023/05/27 08:05:23;;;;;;;7.03;3.10;;;16.00;76.70;;;;;;6132813;23;20013;-81
2023/05/27 08:07:49;;;;;;;6.38;2.83;;;16.00;76.70;;;;;;6134717;23;20051;-79
2023/05/27 08:10:15;;;;;;;7.63;2.78;;;16.00;76.70;;;;;;6135202;23;20458;-81
2023/05/27 08:12:40;;;;;;;7.72;3.45;;;16.30;76.90;;;;;;6134729;23;20009;-79
2023/05/27 08:15:07;;;;;;;5.93;2.92;;;16.00;76.90;;;;;;6129791;23;20010;-80
2023/05/27 08:17:32;;;;;;;7.05;3.00;;;16.00;76.90;;;;;;6122870;23;20388;-81
2023/05/27 08:19:58;;;;;;;6.47;2.88;;;16.00;76.90;;;;;;6129737;23;20012;-79
2023/05/27 08:22:23;;;;;;;11.02;3.25;;;16.00;77.00;;;;;;6121591;23;20036;-76
2023/05/27 08:24:49;;;;;;;28.63;5.25;;;16.00;76.20;;;;;;6121551;23;20017;-75
2023/05/27 08:27:15;;;;;;;19.15;5.00;;;15.90;76.00;;;;;;6147815;23;20057;-80
2023/05/27 08:29:42;;;;;;;20.95;4.90;;;15.90;75.80;;;;;;6148129;23;20033;-79
2023/05/27 08:32:07;;;;;;;17.70;4.95;;;15.90;75.50;;;;;;6155041;23;20013;-79
2023/05/27 08:34:33;;;;;;;20.08;5.55;;;15.90;75.70;;;;;;6151028;23;20063;-79
2023/05/27 08:37:00;;;;;;;16.65;4.43;;;16.00;75.70;;;;;;6178252;23;20444;-78
2023/05/27 08:39:27;;;;;;;15.95;4.70;;;16.00;75.60;;;;;;6178960;23;20060;-78
2023/05/27 08:41:53;;;;;;;18.52;4.68;;;16.10;75.60;;;;;;6150972;23;20013;-81
2023/05/27 08:44:21;;;;;;;15.65;4.90;;;16.00;75.60;;;;;;6188992;23;20323;-81
2023/05/27 08:46:49;;;;;;;11.82;4.90;;;16.10;75.50;;;;;;6197595;23;20285;-81
2023/05/27 08:49:15;;;;;;;14.18;4.60;;;16.00;75.60;;;;;;6167544;23;20001;-80
2023/05/27 08:51:41;;;;;;;13.25;4.13;;;16.10;75.70;;;;;;6185686;23;20031;-80
2023/05/27 08:54:09;;;;;;;13.68;4.38;;;16.20;75.70;;;;;;6187116;23;20004;-80
2023/05/27 08:56:36;;;;;;;12.07;4.30;;;16.20;75.70;;;;;;6162639;23;20005;-81
2023/05/27 08:59:02;;;;;;;10.95;4.43;;;16.20;75.80;;;;;;6194910;23;20009;-80
2023/05/27 09:01:28;;;;;;;13.73;4.28;;;16.20;75.80;;;;;;6190621;23;20028;-80
2023/05/27 09:03:55;;;;;;;12.10;4.18;;;16.20;75.80;;;;;;6160956;23;20523;-80
2023/05/27 09:06:21;;;;;;;12.52;4.25;;;16.20;75.80;;;;;;6187105;23;20009;-80
2023/05/27 09:08:46;;;;;;;11.10;4.57;;;16.30;75.90;;;;;;6185160;23;20103;-80
2023/05/27 09:11:27;;;;;;;10.63;3.85;;;16.30;75.90;;;;;;6164407;23;20083;-81
2023/05/27 09:13:56;;;;;;;10.55;3.97;;;16.40;75.90;;;;;;6190321;23;20372;-80
2023/05/27 09:16:22;;;;;;;11.98;4.35;;;16.30;75.90;;;;;;6159243;23;20005;-80
2023/05/27 09:18:48;;;;;;;8.90;3.63;;;16.30;75.90;;;;;;6159460;23;20013;-80
2023/05/27 09:21:13;;;;;;;11.20;4.15;;;16.30;75.90;;;;;;6159779;23;20394;-80
2023/05/27 09:23:39;;;;;;;7.60;3.40;;;16.40;75.90;;;;;;6186229;23;20080;-80
2023/05/27 09:26:13;;;;;;;10.05;3.85;;;16.40;75.80;;;;;;6158638;23;20009;-80
2023/05/27 09:28:39;;;;;;;8.30;3.67;;;16.50;75.80;;;;;;6162075;23;20088;-81
2023/05/27 09:31:07;;;;;;;10.60;3.88;;;16.50;75.70;;;;;;6190388;23;20004;-80
2023/05/27 09:33:40;;;;;;;10.98;3.50;;;16.50;75.70;;;;;;6163407;23;20409;-80
2023/05/27 09:36:08;;;;;;;9.02;3.63;;;16.50;75.60;;;;;;6163199;23;20501;-80
2023/05/27 09:38:34;;;;;;;8.40;3.75;;;16.40;75.50;;;;;;6190976;23;20009;-80
2023/05/27 09:41:01;;;;;;;8.35;3.78;;;16.50;75.60;;;;;;6189451;23;20028;-81
2023/05/27 09:43:28;;;;;;;8.07;3.60;;;16.50;75.60;;;;;;6161635;23;20001;-80
2023/05/27 09:46:01;;;;;;;9.93;3.67;;;16.60;75.60;;;;;;6160043;23;20057;-80
2023/05/27 09:48:29;;;;;;;9.85;3.67;;;16.60;75.50;;;;;;6158987;23;20001;-80
2023/05/27 09:50:56;;;;;;;9.13;3.47;;;16.50;75.40;;;;;;6158512;23;20468;-80
2023/05/27 09:53:24;;;;;;;8.57;3.53;;;16.40;75.40;;;;;;6188215;23;19997;-81
2023/05/27 09:55:51;;;;;;;8.07;3.65;;;16.50;75.60;;;;;;6162096;23;20005;-80
2023/05/27 09:58:17;;;;;;;10.13;3.65;;;16.50;75.80;;;;;;6160192;23;20333;-80
2023/05/27 10:00:45;;;;;;;9.25;3.78;;;16.50;76.00;;;;;;6186714;23;20185;-80
2023/05/27 10:03:12;;;;;;;7.93;3.15;;;16.50;76.00;;;;;;6159698;23;20008;-80
2023/05/27 10:05:38;;;;;;;8.68;3.30;;;16.50;76.10;;;;;;6159115;23;20448;-81
2023/05/27 10:08:05;;;;;;;8.18;3.25;;;16.50;76.20;;;;;;6158200;23;20452;-80
2023/05/27 10:10:32;;;;;;;6.88;3.42;;;16.50;76.10;;;;;;6184690;23;20001;-80
2023/05/27 10:12:58;;;;;;;7.03;3.00;;;16.50;76.10;;;;;;6185529;23;20024;-81
2023/05/27 10:15:27;;;;;;;8.55;3.47;;;16.50;76.10;;;;;;6159951;23;20005;-80
2023/05/27 10:17:58;;;;;;;8.13;3.15;;;16.50;76.10;;;;;;6157824;23;20008;-80
2023/05/27 10:20:31;;;;;;;9.48;3.53;;;16.50;76.10;;;;;;6186869;23;20017;-80
2023/05/27 10:23:16;;;;;;;10.52;3.40;;;16.50;76.20;;;;;;6159492;23;20001;-80
2023/05/27 10:26:05;;;;;;;8.25;3.33;;;16.50;76.20;;;;;;6158176;23;20051;-80
2023/05/27 10:28:40;;;;;;;7.70;3.13;;;16.60;76.20;;;;;;6158173;23;20005;-81
2023/05/27 10:31:15;;;;;;;6.85;2.90;;;16.50;76.20;;;;;;6158017;23;20682;-80
2023/05/27 10:33:48;;;;;;;6.88;2.92;;;16.60;76.20;;;;;;6157788;23;20019;-80
2023/05/27 10:36:23;;;;;;;9.52;3.58;;;16.50;76.20;;;;;;6158424;23;20013;-80
2023/05/27 10:39:13;;;;;;;6.93;3.33;;;16.60;76.20;;;;;;6158164;23;20028;-79
2023/05/27 10:41:48;;;;;;;6.95;3.00;;;16.50;76.20;;;;;;6159197;23;20008;-81
2023/05/27 10:44:13;;;;;;;7.03;2.92;;;16.60;76.20;;;;;;6170512;23;20019;-82
2023/05/27 10:46:41;;;;;;;8.75;2.83;;;16.50;76.10;;;;;;6178025;23;20005;-81
2023/05/27 10:49:14;;;;;;;7.78;3.08;;;16.60;76.20;;;;;;6179057;23;20048;-82
2023/05/27 10:51:42;;;;;;;9.80;3.80;;;16.60;76.30;;;;;;6177903;23;20404;-81
2023/05/27 10:54:08;;;;;;;6.88;2.97;;;16.50;76.20;;;;;;6172774;23;20005;-80
2023/05/27 10:56:34;;;;;;;6.90;2.90;;;16.60;76.30;;;;;;6159265;23;20009;-81
2023/05/27 10:59:02;;;;;;;6.50;2.78;;;16.60;76.20;;;;;;6176408;23;20005;-81
2023/05/27 11:01:31;;;;;;;6.20;3.10;;;16.50;76.20;;;;;;6175158;23;20005;-81
2023/05/27 11:03:58;;;;;;;7.10;3.00;;;16.50;76.20;;;;;;6175608;23;20012;-81
2023/05/27 11:06:24;;;;;;;6.63;2.80;;;16.60;76.40;;;;;;6174878;23;20013;-79
2023/05/27 11:08:49;;;;;;;6.07;2.90;;;16.60;76.20;;;;;;6174455;23;20001;-81
2023/05/27 11:11:15;;;;;;;5.93;2.60;;;16.60;76.20;;;;;;6171078;23;20087;-81
2023/05/27 11:13:45;;;;;;;6.18;2.83;;;16.60;76.10;;;;;;6184550;23;20007;-80
2023/05/27 11:16:13;;;;;;;6.63;2.58;;;16.60;76.50;;;;;;6172911;23;20419;-80
2023/05/27 11:18:45;;;;;;;6.63;2.83;;;16.70;76.10;;;;;;6171510;23;20015;-81
2023/05/27 11:21:11;;;;;;;7.15;2.88;;;16.70;76.00;;;;;;6171771;23;20032;-80
2023/05/27 11:23:40;;;;;;;6.85;2.70;;;16.60;75.90;;;;;;6171638;23;20573;-80
2023/05/27 11:26:12;;;;;;;7.18;2.80;;;16.70;76.00;;;;;;6197422;23;20001;-81
2023/05/27 11:28:38;;;;;;;8.73;3.00;;;16.70;76.00;;;;;;6170321;23;20039;-81
2023/05/27 11:31:04;;;;;;;13.77;3.28;;;16.60;75.80;;;;;;6196758;23;20351;-81
2023/05/27 11:33:32;;;;;;;18.45;4.00;;;16.60;75.80;;;;;;6168962;23;20009;-81
2023/05/27 11:36:08;;;;;;;15.27;3.75;;;16.60;75.50;;;;;;6170824;23;20069;-80
2023/05/27 11:39:13;;;;;;;17.58;4.18;;;16.60;75.60;;;;;;6170916;23;20016;-80
2023/05/27 11:41:51;;;;;;;10.88;3.75;;;16.60;75.70;;;;;;6084242;23;20014;-82
2023/05/27 11:44:19;;;;;;;15.52;3.42;;;16.50;75.90;;;;;;6154176;23;20033;-80
2023/05/27 11:46:46;;;;;;;14.88;3.67;;;16.50;76.10;;;;;;6175282;23;20016;-81
2023/05/27 11:49:14;;;;;;;14.43;3.80;;;16.50;76.30;;;;;;6178590;23;20001;-81
2023/05/27 11:51:42;;;;;;;10.02;3.95;;;16.50;76.40;;;;;;6178562;23;20011;-81
2023/05/27 11:54:19;;;;;;;11.32;3.40;;;16.50;76.50;;;;;;6177636;23;20001;-81
2023/05/27 11:56:44;;;;;;;13.35;3.53;;;16.50;76.60;;;;;;6176968;23;20009;-81
2023/05/27 11:59:10;;;;;;;11.38;3.45;;;16.40;76.50;;;;;;6176013;23;20005;-81
2023/05/27 12:01:35;;;;;;;9.77;3.33;;;16.40;76.60;;;;;;6187721;23;20421;-80
2023/05/27 12:04:01;;;;;;;12.48;3.30;;;16.50;76.70;;;;;;6173194;23;20432;-82
2023/05/27 12:06:26;;;;;;;13.57;3.58;;;16.50;76.70;;;;;;6201678;23;20080;-81
2023/05/27 12:08:52;;;;;;;13.70;3.47;;;16.40;76.80;;;;;;6202084;23;20005;-81
2023/05/27 12:11:17;;;;;;;10.27;2.78;;;16.40;76.70;;;;;;6171426;23;19997;-81
2023/05/27 12:13:43;;;;;;;11.57;4.10;;;16.40;76.80;;;;;;6175135;23;19997;-81
2023/05/27 12:16:09;;;;;;;8.18;2.92;;;16.40;76.80;;;;;;6201664;23;20001;-83
2023/05/27 12:18:35;;;;;;;11.13;3.40;;;16.40;76.80;;;;;;6175089;23;20005;-82
2023/05/27 12:21:00;;;;;;;10.00;3.50;;;16.40;76.90;;;;;;6173404;23;20005;-81
2023/05/27 12:23:26;;;;;;;9.00;3.33;;;16.30;76.90;;;;;;6199571;23;20005;-81
2023/05/27 12:25:51;;;;;;;9.68;3.40;;;16.40;76.90;;;;;;6200771;23;20013;-80
2023/05/27 12:28:17;;;;;;;10.05;3.20;;;16.40;77.00;;;;;;6175025;23;20009;-82
2023/05/27 12:30:42;;;;;;;9.43;3.00;;;16.40;77.00;;;;;;6175998;23;20013;-82
2023/05/27 12:33:08;;;;;;;8.27;2.70;;;16.40;76.90;;;;;;6175203;23;20444;-82
2023/05/27 12:35:34;;;;;;;8.77;3.45;;;16.40;77.00;;;;;;6175335;23;20057;-82
2023/05/27 12:38:00;;;;;;;8.82;2.90;;;16.40;76.90;;;;;;6172459;23;20070;-81
2023/05/27 12:40:26;;;;;;;7.93;2.80;;;16.40;76.90;;;;;;6171912;23;20005;-82
2023/05/27 12:42:52;;;;;;;9.00;3.10;;;16.50;76.90;;;;;;6166574;23;19997;-81
2023/05/27 12:45:21;;;;;;;11.18;3.50;;;16.40;76.80;;;;;;6170230;23;20024;-82